Badan Meteorologi, Klimatologi, dan Geofisika

CUACA TERKINI BANDARA KUALANAMU

Minggu, 16 Mei 2021 01:05 UTC

Cuaca : Berawan

Angin : (dari) Barat Daya, 3.7 km/jam

Jarak Pandang : >=10 km

Suhu : 26 °C

Waktu Pengamatan : 08:00 WIB

Selengkapnya>>>

DATA METEOROLOGI KUALANAMU

Data Metar Terbaru

WIMM 160100Z 22002KT 9999 BKN017 26/25 Q1009 NOSIG=

WIMM 160030Z 21004KT 7000 SCT017 26/25 Q1008 NOSIG=

WIMM 160000Z 17003KT 6000 SCT017 26/25 Q1008 NOSIG=

WIMM 152300Z 15004KT 8000 SCT017 26/25 Q1007 NOSIG=

TAF WIMM 152300Z 1600/1700 16005KT 6000 SCT018 BECMG 1603/1605 01010KT 9999 NSW BECMG 1610/1611 VRB03KT 4000 BR FEW016CB SCT017 =

Selengkapnya>>>

Data TAF Terbaru

TAF WIMM 152300Z 1600/1700 16005KT 6000 SCT018 BECMG 1603/1605 01010KT 9999 NSW BECMG 1610/1611 VRB03KT 4000 BR FEW016CB SCT017 =

Selengkapnya>>>

CITRA SATELIT

Enhanced
Citra Satelit
Cloud Type
Citra Satelit IR
Hotspot
Citra Satelit
Sebaran Asap
Citra Satelit